Flight Track Log - Related Links

Times and Time Zones

All times are in EST time to prevent confusion due to time zone crossing. See the N589H flight status page for this flight to view local times or setup timezone preferences in your user account.

Time Position Orientation Groundspeed Altitude Reporting Facility
EST Latitude Longitude Course Direction KTS MPH feet Rate Location/Type
Tue 05:11:10 AM 27.9333 -82.6833 270° West 164 189 600  Level Tampa TRACON
Tue 05:11:16 AM 27.9333 -82.7000 270° West 165 190 700 1,636 Climbing Tampa TRACON
Tue 05:12:16 AM 27.9833 -82.7000 360° North 189 217 2,400 1,686 Climbing Tampa TRACON
Tue 05:13:17 AM 28.0333 -82.6833 16° North 217 250 4,100 1,736 Climbing Tampa TRACON
Tue 05:14:17 AM 28.0667 -82.6333 53° Northeast 234 269 5,900 1,750 Climbing Tampa TRACON
Tue 05:15:17 AM 28.1000 -82.5667 60° Northeast 240 276 7,600 1,500 Climbing Tampa TRACON
Tue 05:16:17 AM 28.1333 -82.5000 60° Northeast 246 283 8,900 700 Climbing Tampa TRACON
Tue 05:17:17 AM 28.1833 -82.4167 56° Northeast 302 348 9,000 50 Climbing Tampa TRACON
Tue 05:18:17 AM 28.2167 -82.3333 66° East 308 354 9,000  Level Tampa TRACON
Tue 05:19:23 AM 28.2667 -82.2500 56° Northeast 305 351 9,000  Level Tampa TRACON
Tue 05:21:16 AM 28.3500 -82.0833 60° Northeast 306 352 9,000  Level Orlando TRACON
Tue 05:22:16 AM 28.4000 -82.0000 56° Northeast 306 352 9,000  Level Orlando TRACON
Tue 05:23:16 AM 28.4333 -81.9167 66° East 309 356 9,000 -250 Level Orlando TRACON
Tue 05:24:16 AM 28.4833 -81.8333 56° Northeast 307 353 8,500 -600 Descending Orlando TRACON
Tue 05:25:16 AM 28.5167 -81.7500 66° East 300 345 7,800 -700 Descending Orlando TRACON
Tue 05:26:16 AM 28.5667 -81.6833 49° Northeast 296 341 7,100 -750 Descending Orlando TRACON
Tue 05:27:16 AM 28.6500 -81.6500 19° North 284 327 6,300 -900 Descending Orlando TRACON
Tue 05:28:16 AM 28.7167 -81.6167 24° Northeast 274 315 5,300 -1,250 Descending Orlando TRACON
Tue 05:29:16 AM 28.7833 -81.5833 24° Northeast 272 313 3,800 -950 Descending Orlando TRACON
Tue 05:30:16 AM 28.8000 -81.5000 77° East 254 292 3,400 -200 Descending Orlando TRACON
Tue 05:31:16 AM 28.7833 -81.4333 106° East 224 258 3,400  Level Orlando TRACON

Login

Don't have an account? Register now (free) for customized features, flight alerts, and more!